Map

Track Data

SID SEASON NUMBER BASIN SUBBASIN NAME ISO_TIME NATURE LAT LON WMO_WIND WMO_PRES WMO_AGENCY TRACK_TYPE DIST2LAND LANDFALL IFLAG USA_AGENCY USA_ATCF_ID USA_LAT USA_LON USA_RECORD USA_STATUS USA_WIND USA_PRES USA_SSHS USA_R34_NE USA_R34_SE USA_R34_SW USA_R34_NW USA_R50_NE USA_R50_SE USA_R50_SW USA_R50_NW USA_R64_NE USA_R64_SE USA_R64_SW USA_R64_NW USA_POCI USA_ROCI USA_RMW USA_EYE TOKYO_LAT TOKYO_LON TOKYO_GRADE TOKYO_WIND TOKYO_PRES TOKYO_R50_DIR TOKYO_R50_LONG TOKYO_R50_SHORT TOKYO_R30_DIR TOKYO_R30_LONG TOKYO_R30_SHORT TOKYO_LAND CMA_LAT CMA_LON CMA_CAT CMA_WIND CMA_PRES HKO_LAT HKO_LON HKO_CAT HKO_WIND HKO_PRES NEWDELHI_LAT NEWDELHI_LON NEWDELHI_GRADE NEWDELHI_WIND NEWDELHI_PRES NEWDELHI_CI NEWDELHI_DP NEWDELHI_POCI REUNION_LAT REUNION_LON REUNION_TYPE REUNION_WIND REUNION_PRES REUNION_TNUM REUNION_CI REUNION_RMW REUNION_R34_NE REUNION_R34_SE REUNION_R34_SW REUNION_R34_NW REUNION_R50_NE REUNION_R50_SE REUNION_R50_SW REUNION_R50_NW REUNION_R64_NE REUNION_R64_SE REUNION_R64_SW REUNION_R64_NW BOM_LAT BOM_LON BOM_TYPE BOM_WIND BOM_PRES BOM_TNUM BOM_CI BOM_RMW BOM_R34_NE BOM_R34_SE BOM_R34_SW BOM_R34_NW BOM_R50_NE BOM_R50_SE BOM_R50_SW BOM_R50_NW BOM_R64_NE BOM_R64_SE BOM_R64_SW BOM_R64_NW BOM_ROCI BOM_POCI BOM_EYE BOM_POS_METHOD BOM_PRES_METHOD NADI_LAT NADI_LON NADI_CAT NADI_WIND NADI_PRES WELLINGTON_LAT WELLINGTON_LON WELLINGTON_WIND WELLINGTON_PRES DS824_LAT DS824_LON DS824_STAGE DS824_WIND DS824_PRES TD9636_LAT TD9636_LON TD9636_STAGE TD9636_WIND TD9636_PRES TD9635_LAT TD9635_LON TD9635_WIND TD9635_PRES TD9635_ROCI NEUMANN_LAT NEUMANN_LON NEUMANN_CLASS NEUMANN_WIND NEUMANN_PRES MLC_LAT MLC_LON MLC_CLASS MLC_WIND MLC_PRES USA_GUST BOM_GUST BOM_GUST_PER REUNION_GUST REUNION_GUST_PER USA_SEAHGT USA_SEARAD_NE USA_SEARAD_SE USA_SEARAD_SW USA_SEARAD_NW STORM_SPEED STORM_DIR
1955295N10143 1955 89 WP MM NOT_NAMED 1955-10-22 06:00:00 TS 10.1500 143.200 main 1428 1414 O_O______O_O__ jtwc_wp WP201955 9.90000 142.800 20 -1 10.9000 144.400 0 1006 9.90000 142.800 TC 20 9.90000 142.800 20 1004 60 5 257
1955295N10143 1955 89 WP MM NOT_NAMED 1955-10-22 09:00:00 TS 10.0938 142.947 main 1410 1392 P_P______P_P__ WP201955 9.83752 142.600 22 -1 10.8626 143.988 0 1006 9.83752 142.600 TC 22 9.83752 142.600 22 1003 120 5 257
1955295N10143 1955 89 WP MM NOT_NAMED 1955-10-22 12:00:00 TS 10.0308 142.677 main 1392 1380 O_O______OOO__ jtwc_wp WP201955 9.80000 142.400 25 -1 10.8000 143.600 0 1006 9.80000 142.400 TC 25 9.80000 142.400 1 25 9.80000 142.400 25 1003 180 5 259
1955295N10143 1955 89 WP MM NOT_NAMED 1955-10-22 15:00:00 TS 9.99842 142.433 main 1380 1373 P_P______PPP__ WP201955 9.79999 142.200 25 -1 10.6999 143.250 0 1006 9.79999 142.200 TC 25 9.78603 142.200 1 25 9.79999 142.200 25 1003 210 5 262
1955295N10143 1955 89 WP MM NOT_NAMED 1955-10-22 18:00:00 TS 9.96331 142.189 main 1373 1355 O_O______OPO__ jtwc_wp WP201955 9.80000 142.000 25 -1 10.6000 142.900 0 1006 9.80000 142.000 TC 25 9.76759 142.000 1 25 9.80000 142.000 25 1003 240 5 260
1955295N10143 1955 89 WP MM NOT_NAMED 1955-10-22 21:00:00 TS 9.91406 141.943 main 1352 1345 P_P______PPP__ WP201955 9.75749 141.800 25 -1 10.5574 142.515 0 1005 9.75749 141.800 TC 25 9.74036 141.800 1 25 9.75749 141.800 25 1003 210 5 258
1955295N10143 1955 89 WP MM NOT_NAMED 1955-10-23 00:00:00 TS 9.86000 141.700 main 1345 1328 O_O______OOO__ jtwc_wp WP201955 9.70000 141.600 25 -1 10.5000 142.100 0 1005 9.70000 141.600 TC 25 9.70000 141.600 1 25 9.70000 141.600 25 1003 180 5 256
1955295N10143 1955 89 WP MM NOT_NAMED 1955-10-23 03:00:00 TS 9.79199 141.450 main 1328 1309 P_P______PPP__ WP201955 9.64999 141.400 25 -1 10.3650 141.650 0 1005 9.64999 141.400 TC 25 9.64497 141.400 1 25 9.64999 141.400 25 1004 210 5 254
1955295N10143 1955 89 WP MM NOT_NAMED 1955-10-23 06:00:00 TS 9.71699 141.200 main 1309 1292 O_O______OPO__ jtwc_wp WP201955 9.60000 141.200 25 -1 10.2000 141.200 0 1005 9.60000 141.200 TC 25 9.58495 141.200 1 25 9.60000 141.200 25 1005 240 5 253
1955295N10143 1955 89 WP MM NOT_NAMED 1955-10-23 09:00:00 TS 9.64047 140.958 main 1292 1281 P_P______PPP__ WP201955 9.54249 141.000 25 -1 10.0424 140.793 0 1004 9.54249 141.000 TC 25 9.53247 141.000 1 25 9.54249 141.000 25 1005 210 5 254
1955295N10143 1955 89 WP MM NOT_NAMED 1955-10-23 12:00:00 TS 9.58000 140.720 main 1281 1261 O_O______OOO__ jtwc_wp WP201955 9.50000 140.800 25 -1 9.90000 140.400 1 29 1004 9.50000 140.800 TC 25 9.50000 140.800 1 25 9.50000 140.800 25 1006 180 5 258
1955295N10143 1955 89 WP MM NOT_NAMED 1955-10-23 15:00:00 TS 9.54205 140.478 main 1261 1252 P_P______PPP__ WP201955 9.48499 140.600 25 -1 9.79248 139.993 1 29 1004 9.48499 140.600 TC 25 9.46280 140.596 1 26 9.48499 140.600 25 1006 150 5 264
1955295N10143 1955 89 WP MM NOT_NAMED 1955-10-23 18:00:00 TS 9.53050 140.238 main 1248 1240 O_O______OPO__ jtwc_wp WP201955 9.50000 140.400 25 -1 9.70000 139.600 1 29 1004 9.50000 140.400 TC 25 9.45249 140.392 1 27 9.50000 140.400 25 1006 120 5 268
1955295N10143 1955 89 WP MM NOT_NAMED 1955-10-23 21:00:00 TS 9.52415 140.014 main 1240 1236 P_P______PPP__ WP201955 9.51998 140.207 27 -1 9.56989 139.257 1 29 1004 9.51998 140.207 TC 27 9.49093 140.193 1 28 9.51998 140.207 27 1006 150 5 276
1955295N10143 1955 89 WP MM NOT_NAMED 1955-10-24 00:00:00 TS 9.58000 139.780 main 1242 1235 O_O______OOO__ jtwc_wp WP201955 9.60000 140.000 30 -1 9.50000 138.900 1 29 1004 9.60000 140.000 TC 30 9.60000 140.000 1 30 9.60000 140.000 30 1006 180 6 290
1955295N10143 1955 89 WP MM NOT_NAMED 1955-10-24 03:00:00 TS 9.71843 139.486 main 1242 1238 P_P______PPP__ WP201955 9.75504 139.735 35 0 9.54011 138.428 1 29 1004 9.75504 139.735 TC 35 9.78691 139.798 1 32 9.75504 139.735 35 1005 180 7 304
1955295N10143 1955 89 WP MM NOT_NAMED 1955-10-24 06:00:00 TS 9.94901 139.221 main 1252 1252 O_O______OPO__ jtwc_wp WP201955 10.0000 139.500 40 0 9.70000 138.000 1 29 1004 10.0000 139.500 TC 40 10.0451 139.605 1 35 10.0000 139.500 40 1004 180 7 321
1955295N10143 1955 89 WP MM NOT_NAMED 1955-10-24 09:00:00 TS 10.2586 139.047 main 1288 1288 P_P______PPP__ WP201955 10.3275 139.370 40 0 9.95490 137.688 1 29 1004 10.3275 139.370 TC 40 10.3557 139.435 1 37 10.3275 139.370 40 1003 150 7 339
1955295N10143 1955 89 WP MM NOT_NAMED 1955-10-24 12:00:00 TS 10.6200 138.960 main 1320 1320 O_O______OOO__ jtwc_wp WP201955 10.7000 139.300 40 0 10.3000 137.600 1 29 1004 10.7000 139.300 TC 40 10.7000 139.300 2 40 10.7000 139.300 40 1003 120 7 354
1955295N10143 1955 89 WP MM NOT_NAMED 1955-10-24 15:00:00 TS 10.9645 138.964 main 1363 1363 P_P______PPP__ WP201955 11.0425 139.242 40 0 10.6776 137.825 1 29 1004 11.0425 139.242 TC 40 11.0176 139.270 2 37 11.0425 139.242 40 1004 120 7 4
1955295N10143 1955 89 WP MM NOT_NAMED 1955-10-24 18:00:00 TS 11.3334 139.013 main 1396 1396 O_O______OPO__ jtwc_wp WP201955 11.4000 139.200 40 0 11.1000 138.200 1 29 1004 11.4000 139.200 TC 40 11.3671 139.266 2 35 11.4000 139.200 40 1006 120 8 8
1955295N10143 1955 89 WP MM NOT_NAMED 1955-10-24 21:00:00 TS 11.7191 139.070 main 1438 1436 P_P______PPP__ WP201955 11.7700 139.172 35 0 11.5275 138.605 1 26 1005 11.7700 139.172 TC 35 11.7581 139.229 2 32 11.7700 139.172 35 1006 120 8 0
1955295N10143 1955 89 WP MM NOT_NAMED 1955-10-25 00:00:00 TS 12.1600 139.040 main 1439 1436 O_O______OOO__ jtwc_wp WP201955 12.2000 139.100 30 -1 12.0000 138.800 1 23 1006 12.2000 139.100 TC 30 12.2000 139.100 1 30 12.2000 139.100 30 1007 120 10 348
1955295N10143 1955 89 WP MM NOT_NAMED 1955-10-25 03:00:00 TS 12.6904 138.859 main 1439 1403 P_P______PPP__ WP201955 12.7273 138.982 32 -1 12.5500 138.520 1 23 1006 12.7273 138.982 TC 32 12.7200 138.829 1 31 12.7273 138.982 32 1006 120 12 335
1955295N10143 1955 89 WP MM NOT_NAMED 1955-10-25 06:00:00 TS 13.2570 138.512 main 1405 1362 O_O______OPO__ jtwc_wp WP201955 13.3000 138.700 35 0 13.1000 138.000 1 23 1006 13.3000 138.700 TC 35 13.2849 138.458 1 32 13.3000 138.700 35 1005 120 14 323
1955295N10143 1955 89 WP MM NOT_NAMED 1955-10-25 09:00:00 TS 13.8006 138.002 main 1362 1309 P_P______PPP__ WP201955 13.8652 138.160 35 0 13.5499 137.522 1 23 1006 13.8652 138.160 TC 35 13.8573 138.007 1 33 13.8652 138.160 35 1004 120 15 315
1955295N10143 1955 89 WP MM NOT_NAMED 1955-10-25 12:00:00 TS 14.3200 137.400 main 1309 1256 O_O______OOO__ jtwc_wp WP201955 14.4000 137.500 35 0 14.0000 137.000 1 23 1006 14.4000 137.500 TC 35 14.4000 137.500 2 35 14.4000 137.500 35 1003 120 15 311
1955295N10143 1955 89 WP MM NOT_NAMED 1955-10-25 15:00:00 TS 14.8138 136.811 main 1256 1214 P_P______PPP__ WP201955 14.8724 136.892 37 0 14.5574 136.458 1 23 1006 14.8724 136.892 TC 37 14.8943 136.919 2 35 14.8724 136.892 37 1003 150 15 310
1955295N10143 1955 89 WP MM NOT_NAMED 1955-10-25 18:00:00 TS 15.2698 136.220 main 1207 1165 O_O______OPO__ jtwc_wp WP201955 15.3000 136.300 40 0 15.1000 135.900 1 23 1006 15.3000 136.300 TC 40 15.3488 136.299 2 35 15.3000 136.300 40 1003 180 15 308
1955295N10143 1955 89 WP MM NOT_NAMED 1955-10-25 21:00:00 TS 15.6978 135.625 main 1158 1119 P_P______PPP__ WP201955 15.7300 135.705 37 0 15.5451 135.305 1 1006 15.7300 135.705 TC 37 15.7538 135.704 2 35 15.7300 135.705 37 1004 150 13 307
1955295N10143 1955 89 WP MM NOT_NAMED 1955-10-26 00:00:00 TS 16.0600 135.120 main 1123 1102 O_O______OOO__ jtwc_wp WP201955 16.1000 135.200 35 0 15.9000 134.800 0 1007 16.1000 135.200 TC 35 16.1000 135.200 2 35 16.1000 135.200 35 1005 120 10 308
1955295N10143 1955 89 WP MM NOT_NAMED 1955-10-26 03:00:00 TS 16.3377 134.776 main 1102 1092 P_P______PPP__ WP201955 16.3798 134.840 35 0 16.1798 134.497 0 1007 16.3798 134.840 TC 35 16.3694 134.865 2 33 16.3798 134.840 35 1005 120 7 312
1955295N10143 1955 89 WP MM NOT_NAMED 1955-10-26 06:00:00 TS 16.5573 134.546 main 1087 1082 O_O______OPO__ jtwc_wp WP201955 16.6000 134.600 35 0 16.4000 134.300 0 1007 16.6000 134.600 TC 35 16.5864 134.628 2 32 16.6000 134.600 35 1006 120 6 317
1955295N10143 1955 89 WP MM NOT_NAMED 1955-10-26 09:00:00 TS 16.7525 134.371 main 1087 1074 P_P______PPP__ WP201955 16.7924 134.435 32 -1 16.5999 134.100 0 1007 16.7924 134.435 TC 32 16.7853 134.453 2 31 16.7924 134.435 32 1006 150 5 322
1955295N10143 1955 89 WP MM NOT_NAMED 1955-10-26 12:00:00 TS 16.9600 134.220 main 1079 1071 O_O______OOO__ jtwc_wp WP201955 17.0000 134.300 30 -1 16.8000 133.900 0 1007 17.0000 134.300 TC 30 17.0000 134.300 1 30 17.0000 134.300 30 1007 180 6 325
1955295N10143 1955 89 WP MM NOT_NAMED 1955-10-26 15:00:00 TS 17.2338 134.014 main 1071 1068 P_P______PPP__ WP201955 17.2850 134.100 30 -1 17.0275 133.665 0 1007 17.2850 134.100 TC 30 17.2865 134.107 1 30 17.2850 134.100 30 1007 180 7 328
1955295N10143 1955 89 WP MM NOT_NAMED 1955-10-26 18:00:00 TS 17.5510 133.827 main 1077 1074 O_O______OPO__ jtwc_wp WP201955 17.6000 133.900 30 -1 17.3000 133.400 0 1007 17.6000 133.900 TC 30 17.5924 133.927 1 30 17.6000 133.900 30 1007 180 7 333
1955295N10143 1955 89 WP MM NOT_NAMED 1955-10-26 21:00:00 TS 17.8757 133.676 main 1087 1078 P_P______PPP__ WP201955 17.9075 133.742 30 -1 17.6326 133.108 0 1007 17.9075 133.742 TC 30 17.9021 133.760 1 30 17.9075 133.742 30 1007 180 7 338
1955295N10143 1955 89 WP MM NOT_NAMED 1955-10-27 00:00:00 TS 18.1882 133.553 main 1094 1084 O_O______OOO__ jtwc_wp WP201955 18.2000 133.600 30 -1 18.0000 132.800 0 1007 18.2000 133.600 TC 30 18.2000 133.600 1 30 18.2000 133.600 30 1008 180 6 340
1955295N10143 1955 89 WP MM NOT_NAMED 1955-10-27 03:00:00 TS 18.4616 133.449 main 1090 1085 P________PPP__ WP201955 18.4575 133.450 27 -1 0 18.4575 133.450 TC 27 18.4741 133.446 1 27 18.4575 133.450 27 1008 150 6 335
1955295N10143 1955 89 WP MM NOT_NAMED 1955-10-27 06:00:00 TS 18.7069 133.299 main 1091 1087 O________OPO__ jtwc_wp WP201955 18.7000 133.300 25 -1 18.7000 133.300 TC 25 18.7276 133.295 1 25 18.7000 133.300 25 1008 120 6 330
1955295N10143 1955 89 WP MM NOT_NAMED 1955-10-27 09:00:00 TS 18.9525 133.149 main 1089 1085 P________PPP__ WP201955 18.9475 133.150 22 -1 18.9475 133.150 TC 22 18.9673 133.147 1 22 18.9475 133.150 22 1008 90 6 330
1955295N10143 1955 89 WP MM NOT_NAMED 1955-10-27 12:00:00 TS 19.2000 133.000 main 1091 O________OOO__ jtwc_wp WP201955 19.2000 133.000 20 -1 19.2000 133.000 TC 20 19.2000 133.000 1 20 19.2000 133.000 20 1009 60 6 330

Digital Typhoon Data and Search

About IBTrACS Database

This database is a web-friendly format of International Best Track Archive for Climate Stewardship (IBTrACS), a global best track data archive curated by NOAA dating back to 1842.

Updated: 2021-10-21